sensor_id;sensor_type;location;lat;lon;timestamp;temperature;humidity
73547;SHT30;61807;48.384;-4.386;2022-07-18T00:02:19;24.06;51.06
73547;SHT30;61807;48.384;-4.386;2022-07-18T00:04:45;24.02;51.18
73547;SHT30;61807;48.384;-4.386;2022-07-18T00:07:11;24.00;51.02
73547;SHT30;61807;48.384;-4.386;2022-07-18T00:09:38;24.01;51.06
73547;SHT30;61807;48.384;-4.386;2022-07-18T00:12:04;24.00;50.94
73547;SHT30;61807;48.384;-4.386;2022-07-18T00:14:30;23.98;50.85
73547;SHT30;61807;48.384;-4.386;2022-07-18T00:16:56;23.97;50.98
73547;SHT30;61807;48.384;-4.386;2022-07-18T00:19:21;23.97;50.92
73547;SHT30;61807;48.384;-4.386;2022-07-18T00:21:47;23.97;50.81
73547;SHT30;61807;48.384;-4.386;2022-07-18T00:24:13;23.97;50.77
73547;SHT30;61807;48.384;-4.386;2022-07-18T00:26:38;23.94;50.74
73547;SHT30;61807;48.384;-4.386;2022-07-18T00:29:04;23.97;50.59
73547;SHT30;61807;48.384;-4.386;2022-07-18T00:31:29;23.93;50.52
73547;SHT30;61807;48.384;-4.386;2022-07-18T00:33:54;24.00;50.46
73547;SHT30;61807;48.384;-4.386;2022-07-18T00:36:20;23.98;50.15
73547;SHT30;61807;48.384;-4.386;2022-07-18T00:38:45;23.97;49.97
73547;SHT30;61807;48.384;-4.386;2022-07-18T00:41:16;23.95;49.76
73547;SHT30;61807;48.384;-4.386;2022-07-18T00:43:42;23.94;49.78
73547;SHT30;61807;48.384;-4.386;2022-07-18T00:46:07;23.91;49.61
73547;SHT30;61807;48.384;-4.386;2022-07-18T00:48:33;23.89;49.45
73547;SHT30;61807;48.384;-4.386;2022-07-18T00:50:58;23.88;49.45
73547;SHT30;61807;48.384;-4.386;2022-07-18T00:53:23;23.88;49.47
73547;SHT30;61807;48.384;-4.386;2022-07-18T00:55:49;23.87;49.65
73547;SHT30;61807;48.384;-4.386;2022-07-18T00:58:16;23.88;49.56
73547;SHT30;61807;48.384;-4.386;2022-07-18T01:00:41;23.87;49.55
73547;SHT30;61807;48.384;-4.386;2022-07-18T01:03:26;23.88;49.45
73547;SHT30;61807;48.384;-4.386;2022-07-18T01:05:51;23.89;49.42
73547;SHT30;61807;48.384;-4.386;2022-07-18T01:08:17;23.95;49.21
73547;SHT30;61807;48.384;-4.386;2022-07-18T01:10:42;23.98;49.41
73547;SHT30;61807;48.384;-4.386;2022-07-18T01:13:08;23.98;49.26
73547;SHT30;61807;48.384;-4.386;2022-07-18T01:15:34;24.02;49.52
73547;SHT30;61807;48.384;-4.386;2022-07-18T01:18:00;24.02;49.38
73547;SHT30;61807;48.384;-4.386;2022-07-18T01:20:27;24.02;49.54
73547;SHT30;61807;48.384;-4.386;2022-07-18T01:22:53;24.02;49.55
73547;SHT30;61807;48.384;-4.386;2022-07-18T01:25:19;24.05;49.73
73547;SHT30;61807;48.384;-4.386;2022-07-18T01:27:44;24.06;49.52
73547;SHT30;61807;48.384;-4.386;2022-07-18T01:30:10;24.09;49.76
73547;SHT30;61807;48.384;-4.386;2022-07-18T01:32:35;24.12;49.81
73547;SHT30;61807;48.384;-4.386;2022-07-18T01:35:01;24.11;49.80
73547;SHT30;61807;48.384;-4.386;2022-07-18T01:37:26;24.14;49.84
73547;SHT30;61807;48.384;-4.386;2022-07-18T01:39:52;24.16;49.97
73547;SHT30;61807;48.384;-4.386;2022-07-18T01:42:17;24.21;50.03
73547;SHT30;61807;48.384;-4.386;2022-07-18T01:44:43;24.24;49.85
73547;SHT30;61807;48.384;-4.386;2022-07-18T01:47:10;24.25;49.84
73547;SHT30;61807;48.384;-4.386;2022-07-18T01:49:37;24.25;49.92
73547;SHT30;61807;48.384;-4.386;2022-07-18T01:52:03;24.25;49.92
73547;SHT30;61807;48.384;-4.386;2022-07-18T01:54:31;24.29;49.86
73547;SHT30;61807;48.384;-4.386;2022-07-18T01:56:59;24.28;49.95
73547;SHT30;61807;48.384;-4.386;2022-07-18T01:59:25;24.29;49.94
73547;SHT30;61807;48.384;-4.386;2022-07-18T02:01:50;24.30;50.03
73547;SHT30;61807;48.384;-4.386;2022-07-18T02:04:16;24.32;49.97
73547;SHT30;61807;48.384;-4.386;2022-07-18T02:06:42;24.28;49.78
73547;SHT30;61807;48.384;-4.386;2022-07-18T02:09:08;24.21;49.93
73547;SHT30;61807;48.384;-4.386;2022-07-18T02:11:35;24.15;49.83
73547;SHT30;61807;48.384;-4.386;2022-07-18T02:14:01;24.11;50.00
73547;SHT30;61807;48.384;-4.386;2022-07-18T02:16:27;24.05;49.99
73547;SHT30;61807;48.384;-4.386;2022-07-18T02:18:54;23.98;49.85
73547;SHT30;61807;48.384;-4.386;2022-07-18T02:21:20;23.97;49.81
73547;SHT30;61807;48.384;-4.386;2022-07-18T02:23:45;23.91;49.46
73547;SHT30;61807;48.384;-4.386;2022-07-18T02:26:11;23.91;49.72
73547;SHT30;61807;48.384;-4.386;2022-07-18T02:28:36;23.95;50.05
73547;SHT30;61807;48.384;-4.386;2022-07-18T02:31:05;23.97;49.90
73547;SHT30;61807;48.384;-4.386;2022-07-18T02:33:32;23.98;49.98
73547;SHT30;61807;48.384;-4.386;2022-07-18T02:35:57;23.98;50.09
73547;SHT30;61807;48.384;-4.386;2022-07-18T02:38:23;24.01;50.27
73547;SHT30;61807;48.384;-4.386;2022-07-18T02:40:48;23.97;50.28
73547;SHT30;61807;48.384;-4.386;2022-07-18T02:43:15;23.88;50.20
73547;SHT30;61807;48.384;-4.386;2022-07-18T02:45:40;23.78;50.12
73547;SHT30;61807;48.384;-4.386;2022-07-18T02:48:06;23.73;50.09
73547;SHT30;61807;48.384;-4.386;2022-07-18T02:50:31;23.66;49.98
73547;SHT30;61807;48.384;-4.386;2022-07-18T02:52:57;23.60;50.32
73547;SHT30;61807;48.384;-4.386;2022-07-18T02:55:22;23.57;50.22
73547;SHT30;61807;48.384;-4.386;2022-07-18T02:57:48;23.57;50.10
73547;SHT30;61807;48.384;-4.386;2022-07-18T03:00:15;23.54;50.12
73547;SHT30;61807;48.384;-4.386;2022-07-18T03:02:41;23.49;50.14
73547;SHT30;61807;48.384;-4.386;2022-07-18T03:05:07;23.49;50.09
73547;SHT30;61807;48.384;-4.386;2022-07-18T03:07:33;23.53;50.33
73547;SHT30;61807;48.384;-4.386;2022-07-18T03:09:58;23.54;50.30
73547;SHT30;61807;48.384;-4.386;2022-07-18T03:12:24;23.60;50.16
73547;SHT30;61807;48.384;-4.386;2022-07-18T03:14:49;23.58;50.16
73547;SHT30;61807;48.384;-4.386;2022-07-18T03:17:15;23.56;50.31
73547;SHT30;61807;48.384;-4.386;2022-07-18T03:19:41;23.51;50.51
73547;SHT30;61807;48.384;-4.386;2022-07-18T03:22:06;23.51;50.67
73547;SHT30;61807;48.384;-4.386;2022-07-18T03:24:32;23.45;50.74
73547;SHT30;61807;48.384;-4.386;2022-07-18T03:26:57;23.40;50.62
73547;SHT30;61807;48.384;-4.386;2022-07-18T03:29:23;23.40;50.57
73547;SHT30;61807;48.384;-4.386;2022-07-18T03:31:49;23.39;50.66
73547;SHT30;61807;48.384;-4.386;2022-07-18T03:34:14;23.40;50.69
73547;SHT30;61807;48.384;-4.386;2022-07-18T03:36:40;23.42;50.57
73547;SHT30;61807;48.384;-4.386;2022-07-18T03:39:07;23.43;50.59
73547;SHT30;61807;48.384;-4.386;2022-07-18T03:41:32;23.47;50.45
73547;SHT30;61807;48.384;-4.386;2022-07-18T03:43:58;23.47;50.59
73547;SHT30;61807;48.384;-4.386;2022-07-18T03:46:24;23.51;50.31
73547;SHT30;61807;48.384;-4.386;2022-07-18T03:48:49;23.53;50.35
73547;SHT30;61807;48.384;-4.386;2022-07-18T03:51:15;23.54;50.42
73547;SHT30;61807;48.384;-4.386;2022-07-18T03:53:41;23.51;50.42
73547;SHT30;61807;48.384;-4.386;2022-07-18T03:56:06;23.54;50.41
73547;SHT30;61807;48.384;-4.386;2022-07-18T03:58:32;23.50;50.57
73547;SHT30;61807;48.384;-4.386;2022-07-18T04:00:57;23.46;50.79
73547;SHT30;61807;48.384;-4.386;2022-07-18T04:03:22;23.43;50.85
73547;SHT30;61807;48.384;-4.386;2022-07-18T04:05:48;23.39;50.99
73547;SHT30;61807;48.384;-4.386;2022-07-18T04:08:14;23.31;51.30
73547;SHT30;61807;48.384;-4.386;2022-07-18T04:10:40;23.23;51.44
73547;SHT30;61807;48.384;-4.386;2022-07-18T04:13:06;23.19;51.46
73547;SHT30;61807;48.384;-4.386;2022-07-18T04:15:33;23.16;51.62
73547;SHT30;61807;48.384;-4.386;2022-07-18T04:17:59;23.13;51.85
73547;SHT30;61807;48.384;-4.386;2022-07-18T04:20:24;23.10;51.93
73547;SHT30;61807;48.384;-4.386;2022-07-18T04:22:56;23.10;51.95
73547;SHT30;61807;48.384;-4.386;2022-07-18T04:25:23;23.06;51.92
73547;SHT30;61807;48.384;-4.386;2022-07-18T04:27:49;23.08;52.11
73547;SHT30;61807;48.384;-4.386;2022-07-18T04:30:16;23.06;52.17
73547;SHT30;61807;48.384;-4.386;2022-07-18T04:32:42;23.03;52.26
73547;SHT30;61807;48.384;-4.386;2022-07-18T04:35:08;23.02;52.23
73547;SHT30;61807;48.384;-4.386;2022-07-18T04:37:34;23.00;52.46
73547;SHT30;61807;48.384;-4.386;2022-07-18T04:40:01;22.99;52.53
73547;SHT30;61807;48.384;-4.386;2022-07-18T04:42:26;22.98;52.28
73547;SHT30;61807;48.384;-4.386;2022-07-18T04:44:52;22.98;52.28
73547;SHT30;61807;48.384;-4.386;2022-07-18T04:47:18;22.99;52.44
73547;SHT30;61807;48.384;-4.386;2022-07-18T04:49:43;23.02;51.87
73547;SHT30;61807;48.384;-4.386;2022-07-18T04:52:09;23.05;51.80
73547;SHT30;61807;48.384;-4.386;2022-07-18T04:54:34;23.09;51.73
73547;SHT30;61807;48.384;-4.386;2022-07-18T04:57:00;23.10;51.32
73547;SHT30;61807;48.384;-4.386;2022-07-18T04:59:25;23.13;51.62
73547;SHT30;61807;48.384;-4.386;2022-07-18T05:01:50;23.12;51.50
73547;SHT30;61807;48.384;-4.386;2022-07-18T05:04:16;23.16;51.53
73547;SHT30;61807;48.384;-4.386;2022-07-18T05:06:41;23.17;51.38
73547;SHT30;61807;48.384;-4.386;2022-07-18T05:09:07;23.16;51.32
73547;SHT30;61807;48.384;-4.386;2022-07-18T05:11:32;23.20;51.58
73547;SHT30;61807;48.384;-4.386;2022-07-18T05:13:58;23.19;51.11
73547;SHT30;61807;48.384;-4.386;2022-07-18T05:16:23;23.20;51.43
73547;SHT30;61807;48.384;-4.386;2022-07-18T05:18:48;23.23;51.21
73547;SHT30;61807;48.384;-4.386;2022-07-18T05:21:14;23.20;51.42
73547;SHT30;61807;48.384;-4.386;2022-07-18T05:23:39;23.24;51.35
73547;SHT30;61807;48.384;-4.386;2022-07-18T05:26:05;23.26;51.39
73547;SHT30;61807;48.384;-4.386;2022-07-18T05:28:30;23.27;51.09
73547;SHT30;61807;48.384;-4.386;2022-07-18T05:30:56;23.31;51.15
73547;SHT30;61807;48.384;-4.386;2022-07-18T05:33:21;23.33;50.90
73547;SHT30;61807;48.384;-4.386;2022-07-18T05:35:47;23.34;51.24
73547;SHT30;61807;48.384;-4.386;2022-07-18T05:38:12;23.34;50.89
73547;SHT30;61807;48.384;-4.386;2022-07-18T05:40:37;23.40;51.01
73547;SHT30;61807;48.384;-4.386;2022-07-18T05:43:03;23.40;51.02
73547;SHT30;61807;48.384;-4.386;2022-07-18T05:45:29;23.45;51.00
73547;SHT30;61807;48.384;-4.386;2022-07-18T05:47:54;23.49;51.26
73547;SHT30;61807;48.384;-4.386;2022-07-18T05:50:21;23.47;50.82
73547;SHT30;61807;48.384;-4.386;2022-07-18T05:52:47;23.49;50.95
73547;SHT30;61807;48.384;-4.386;2022-07-18T05:55:13;23.51;51.18
73547;SHT30;61807;48.384;-4.386;2022-07-18T05:57:38;23.54;50.91
73547;SHT30;61807;48.384;-4.386;2022-07-18T06:00:05;23.56;51.14
73547;SHT30;61807;48.384;-4.386;2022-07-18T06:02:31;23.60;50.85
73547;SHT30;61807;48.384;-4.386;2022-07-18T06:04:57;23.61;50.96
73547;SHT30;61807;48.384;-4.386;2022-07-18T06:07:22;23.66;51.47
73547;SHT30;61807;48.384;-4.386;2022-07-18T06:09:48;23.67;51.37
73547;SHT30;61807;48.384;-4.386;2022-07-18T06:12:15;23.66;51.67
73547;SHT30;61807;48.384;-4.386;2022-07-18T06:14:40;23.70;51.59
73547;SHT30;61807;48.384;-4.386;2022-07-18T06:17:06;23.70;52.17
73547;SHT30;61807;48.384;-4.386;2022-07-18T06:19:31;23.71;52.34
73547;SHT30;61807;48.384;-4.386;2022-07-18T06:21:57;23.71;52.45
73547;SHT30;61807;48.384;-4.386;2022-07-18T06:24:23;23.74;52.48
73547;SHT30;61807;48.384;-4.386;2022-07-18T06:26:48;23.77;52.68
73547;SHT30;61807;48.384;-4.386;2022-07-18T06:29:15;23.75;52.54
73547;SHT30;61807;48.384;-4.386;2022-07-18T06:31:41;23.79;52.35
73547;SHT30;61807;48.384;-4.386;2022-07-18T06:34:06;23.81;52.18
73547;SHT30;61807;48.384;-4.386;2022-07-18T06:36:32;23.84;52.34
73547;SHT30;61807;48.384;-4.386;2022-07-18T06:38:57;23.87;52.63
73547;SHT30;61807;48.384;-4.386;2022-07-18T06:41:23;23.87;52.16
73547;SHT30;61807;48.384;-4.386;2022-07-18T06:43:48;23.94;51.94
73547;SHT30;61807;48.384;-4.386;2022-07-18T06:46:14;23.97;52.16
73547;SHT30;61807;48.384;-4.386;2022-07-18T06:48:39;24.02;51.91
73547;SHT30;61807;48.384;-4.386;2022-07-18T06:51:05;24.11;51.79
73547;SHT30;61807;48.384;-4.386;2022-07-18T06:53:32;24.16;51.04
73547;SHT30;61807;48.384;-4.386;2022-07-18T06:55:58;24.22;51.31
73547;SHT30;61807;48.384;-4.386;2022-07-18T06:58:24;24.28;50.91
73547;SHT30;61807;48.384;-4.386;2022-07-18T07:00:50;24.35;50.95
73547;SHT30;61807;48.384;-4.386;2022-07-18T07:03:16;24.40;50.63
73547;SHT30;61807;48.384;-4.386;2022-07-18T07:05:41;24.49;50.19
73547;SHT30;61807;48.384;-4.386;2022-07-18T07:08:07;24.57;50.59
73547;SHT30;61807;48.384;-4.386;2022-07-18T07:10:32;24.66;50.00
73547;SHT30;61807;48.384;-4.386;2022-07-18T07:12:58;24.77;49.84
73547;SHT30;61807;48.384;-4.386;2022-07-18T07:15:24;24.84;49.73
73547;SHT30;61807;48.384;-4.386;2022-07-18T07:17:50;24.98;49.54
73547;SHT30;61807;48.384;-4.386;2022-07-18T07:20:16;25.10;49.04
73547;SHT30;61807;48.384;-4.386;2022-07-18T07:22:54;25.21;48.73
73547;SHT30;61807;48.384;-4.386;2022-07-18T07:25:21;25.32;48.63
73547;SHT30;61807;48.384;-4.386;2022-07-18T07:27:47;25.45;48.17
73547;SHT30;61807;48.384;-4.386;2022-07-18T07:30:14;25.62;47.54
73547;SHT30;61807;48.384;-4.386;2022-07-18T07:32:42;25.71;47.73
73547;SHT30;61807;48.384;-4.386;2022-07-18T07:35:09;25.83;47.78
73547;SHT30;61807;48.384;-4.386;2022-07-18T07:37:40;25.97;46.98
73547;SHT30;61807;48.384;-4.386;2022-07-18T07:40:06;26.13;47.21
73547;SHT30;61807;48.384;-4.386;2022-07-18T07:42:32;26.24;46.26
73547;SHT30;61807;48.384;-4.386;2022-07-18T07:44:58;26.40;45.91
73547;SHT30;61807;48.384;-4.386;2022-07-18T07:47:23;26.52;45.59
73547;SHT30;61807;48.384;-4.386;2022-07-18T07:49:48;26.64;44.89
73547;SHT30;61807;48.384;-4.386;2022-07-18T07:52:14;26.77;45.35
73547;SHT30;61807;48.384;-4.386;2022-07-18T07:54:41;26.85;45.08
73547;SHT30;61807;48.384;-4.386;2022-07-18T07:57:07;26.95;44.74
73547;SHT30;61807;48.384;-4.386;2022-07-18T07:59:32;27.02;44.50
73547;SHT30;61807;48.384;-4.386;2022-07-18T08:01:59;27.06;44.55
73547;SHT30;61807;48.384;-4.386;2022-07-18T08:04:24;27.15;43.92
73547;SHT30;61807;48.384;-4.386;2022-07-18T08:06:50;27.19;43.71
73547;SHT30;61807;48.384;-4.386;2022-07-18T08:09:16;27.20;44.27
73547;SHT30;61807;48.384;-4.386;2022-07-18T08:11:41;27.26;43.84
73547;SHT30;61807;48.384;-4.386;2022-07-18T08:14:07;27.30;43.81
73547;SHT30;61807;48.384;-4.386;2022-07-18T08:16:32;27.37;43.50
73547;SHT30;61807;48.384;-4.386;2022-07-18T08:18:58;27.47;43.33
73547;SHT30;61807;48.384;-4.386;2022-07-18T08:21:23;27.57;42.71
73547;SHT30;61807;48.384;-4.386;2022-07-18T08:23:48;27.70;41.87
73547;SHT30;61807;48.384;-4.386;2022-07-18T08:26:14;27.81;42.15
73547;SHT30;61807;48.384;-4.386;2022-07-18T08:28:40;27.91;41.64
73547;SHT30;61807;48.384;-4.386;2022-07-18T08:31:06;27.98;42.31
73547;SHT30;61807;48.384;-4.386;2022-07-18T08:33:31;28.00;41.92
73547;SHT30;61807;48.384;-4.386;2022-07-18T08:35:57;28.15;41.42
73547;SHT30;61807;48.384;-4.386;2022-07-18T08:38:22;28.22;41.59
73547;SHT30;61807;48.384;-4.386;2022-07-18T08:40:48;28.31;41.65
73547;SHT30;61807;48.384;-4.386;2022-07-18T08:43:15;28.36;40.86
73547;SHT30;61807;48.384;-4.386;2022-07-18T08:45:43;28.52;40.00
73547;SHT30;61807;48.384;-4.386;2022-07-18T08:48:09;28.67;40.46
73547;SHT30;61807;48.384;-4.386;2022-07-18T08:50:34;28.82;40.65
73547;SHT30;61807;48.384;-4.386;2022-07-18T08:53:00;28.89;40.39
73547;SHT30;61807;48.384;-4.386;2022-07-18T08:55:26;29.00;40.52
73547;SHT30;61807;48.384;-4.386;2022-07-18T08:57:52;29.08;40.03
73547;SHT30;61807;48.384;-4.386;2022-07-18T09:00:18;29.24;39.44
73547;SHT30;61807;48.384;-4.386;2022-07-18T09:02:44;29.27;39.77
73547;SHT30;61807;48.384;-4.386;2022-07-18T09:05:18;29.38;39.59
73547;SHT30;61807;48.384;-4.386;2022-07-18T09:07:44;29.48;39.53
73547;SHT30;61807;48.384;-4.386;2022-07-18T09:10:10;29.61;38.74
73547;SHT30;61807;48.384;-4.386;2022-07-18T09:12:35;29.71;38.13
73547;SHT30;61807;48.384;-4.386;2022-07-18T09:15:08;29.73;38.55
73547;SHT30;61807;48.384;-4.386;2022-07-18T09:17:36;29.82;38.83
73547;SHT30;61807;48.384;-4.386;2022-07-18T09:22:37;30.05;38.57
73547;SHT30;61807;48.384;-4.386;2022-07-18T09:25:13;30.17;37.70
73547;SHT30;61807;48.384;-4.386;2022-07-18T09:30:22;30.31;37.55
73547;SHT30;61807;48.384;-4.386;2022-07-18T09:33:09;30.45;36.69
73547;SHT30;61807;48.384;-4.386;2022-07-18T09:35:46;30.58;37.30
73547;SHT30;61807;48.384;-4.386;2022-07-18T09:38:14;30.60;37.95
73547;SHT30;61807;48.384;-4.386;2022-07-18T09:40:46;30.70;38.41
73547;SHT30;61807;48.384;-4.386;2022-07-18T09:43:14;30.77;38.02
73547;SHT30;61807;48.384;-4.386;2022-07-18T09:45:49;30.94;37.25
73547;SHT30;61807;48.384;-4.386;2022-07-18T09:48:19;31.05;37.53
73547;SHT30;61807;48.384;-4.386;2022-07-18T09:50:58;31.14;37.49
73547;SHT30;61807;48.384;-4.386;2022-07-18T09:53:30;31.19;38.01
73547;SHT30;61807;48.384;-4.386;2022-07-18T09:55:58;31.15;38.30
73547;SHT30;61807;48.384;-4.386;2022-07-18T09:58:26;31.12;38.15
73547;SHT30;61807;48.384;-4.386;2022-07-18T10:00:53;31.05;38.26
73547;SHT30;61807;48.384;-4.386;2022-07-18T10:03:20;31.08;38.40
73547;SHT30;61807;48.384;-4.386;2022-07-18T10:05:48;31.26;38.73
73547;SHT30;61807;48.384;-4.386;2022-07-18T10:08:16;31.45;38.02
73547;SHT30;61807;48.384;-4.386;2022-07-18T10:10:44;31.66;37.27
73547;SHT30;61807;48.384;-4.386;2022-07-18T10:13:10;31.84;37.35
73547;SHT30;61807;48.384;-4.386;2022-07-18T10:15:38;32.01;37.30
73547;SHT30;61807;48.384;-4.386;2022-07-18T10:18:07;32.15;36.87
73547;SHT30;61807;48.384;-4.386;2022-07-18T10:20:38;32.28;37.10
73547;SHT30;61807;48.384;-4.386;2022-07-18T10:23:31;32.39;36.63
73547;SHT30;61807;48.384;-4.386;2022-07-18T10:26:23;32.51;35.42
73547;SHT30;61807;48.384;-4.386;2022-07-18T10:31:22;32.63;35.29
73547;SHT30;61807;48.384;-4.386;2022-07-18T10:33:48;32.73;35.45
73547;SHT30;61807;48.384;-4.386;2022-07-18T10:36:18;32.78;35.56
73547;SHT30;61807;48.384;-4.386;2022-07-18T10:39:09;32.83;35.46
73547;SHT30;61807;48.384;-4.386;2022-07-18T10:50:06;32.99;34.00
73547;SHT30;61807;48.384;-4.386;2022-07-18T11:02:39;33.02;32.87
73547;SHT30;61807;48.384;-4.386;2022-07-18T11:16:08;33.07;32.58
73547;SHT30;61807;48.384;-4.386;2022-07-18T11:23:51;33.17;32.29
73547;SHT30;61807;48.384;-4.386;2022-07-18T11:26:22;33.21;32.66
73547;SHT30;61807;48.384;-4.386;2022-07-18T11:28:49;33.23;32.90
73547;SHT30;61807;48.384;-4.386;2022-07-18T11:31:22;33.26;32.42
73547;SHT30;61807;48.384;-4.386;2022-07-18T11:33:49;33.26;32.63
73547;SHT30;61807;48.384;-4.386;2022-07-18T11:36:20;33.34;32.64
73547;SHT30;61807;48.384;-4.386;2022-07-18T11:39:27;33.46;32.64
73547;SHT30;61807;48.384;-4.386;2022-07-18T11:41:39;33.55;32.46
73547;SHT30;61807;48.384;-4.386;2022-07-18T11:44:06;33.70;32.54
73547;SHT30;61807;48.384;-4.386;2022-07-18T11:46:41;33.84;32.57
73547;SHT30;61807;48.384;-4.386;2022-07-18T11:49:06;33.97;32.37
73547;SHT30;61807;48.384;-4.386;2022-07-18T11:51:39;34.08;31.52
73547;SHT30;61807;48.384;-4.386;2022-07-18T11:54:05;34.20;30.65
73547;SHT30;61807;48.384;-4.386;2022-07-18T11:56:31;34.29;29.82
73547;SHT30;61807;48.384;-4.386;2022-07-18T11:58:57;34.42;30.06
73547;SHT30;61807;48.384;-4.386;2022-07-18T12:01:30;34.55;29.92
73547;SHT30;61807;48.384;-4.386;2022-07-18T12:03:56;34.67;28.63
73547;SHT30;61807;48.384;-4.386;2022-07-18T12:06:23;34.80;28.54
73547;SHT30;61807;48.384;-4.386;2022-07-18T12:08:57;34.93;28.06
73547;SHT30;61807;48.384;-4.386;2022-07-18T12:14:13;35.19;27.52
73547;SHT30;61807;48.384;-4.386;2022-07-18T12:24:34;35.56;27.21
73547;SHT30;61807;48.384;-4.386;2022-07-18T12:29:56;35.79;27.90
73547;SHT30;61807;48.384;-4.386;2022-07-18T12:32:28;35.90;27.92
73547;SHT30;61807;48.384;-4.386;2022-07-18T12:35:00;35.97;27.36
73547;SHT30;61807;48.384;-4.386;2022-07-18T12:37:28;36.07;27.51
73547;SHT30;61807;48.384;-4.386;2022-07-18T12:39:59;36.21;27.33
73547;SHT30;61807;48.384;-4.386;2022-07-18T12:42:31;36.29;27.58
73547;SHT30;61807;48.384;-4.386;2022-07-18T12:44:57;36.37;27.57
73547;SHT30;61807;48.384;-4.386;2022-07-18T12:47:22;36.50;27.49
73547;SHT30;61807;48.384;-4.386;2022-07-18T12:49:48;36.58;27.03
73547;SHT30;61807;48.384;-4.386;2022-07-18T12:52:13;36.64;26.66
73547;SHT30;61807;48.384;-4.386;2022-07-18T12:54:39;36.74;26.87
73547;SHT30;61807;48.384;-4.386;2022-07-18T12:57:04;36.78;26.86
73547;SHT30;61807;48.384;-4.386;2022-07-18T12:59:29;36.84;26.23
73547;SHT30;61807;48.384;-4.386;2022-07-18T13:01:55;36.88;26.25
73547;SHT30;61807;48.384;-4.386;2022-07-18T13:04:20;36.92;26.93
73547;SHT30;61807;48.384;-4.386;2022-07-18T13:06:45;37.00;26.50
73547;SHT30;61807;48.384;-4.386;2022-07-18T13:09:11;37.07;26.03
73547;SHT30;61807;48.384;-4.386;2022-07-18T13:11:36;37.11;26.62
73547;SHT30;61807;48.384;-4.386;2022-07-18T13:14:02;37.16;26.51
73547;SHT30;61807;48.384;-4.386;2022-07-18T13:16:28;37.21;26.50
73547;SHT30;61807;48.384;-4.386;2022-07-18T13:18:53;37.29;25.85
73547;SHT30;61807;48.384;-4.386;2022-07-18T13:21:19;37.33;25.88
73547;SHT30;61807;48.384;-4.386;2022-07-18T13:23:44;37.36;26.01
73547;SHT30;61807;48.384;-4.386;2022-07-18T13:26:09;37.40;26.05
73547;SHT30;61807;48.384;-4.386;2022-07-18T13:28:35;37.45;25.29
73547;SHT30;61807;48.384;-4.386;2022-07-18T13:31:00;37.49;24.66
73547;SHT30;61807;48.384;-4.386;2022-07-18T13:33:27;37.47;24.33
73547;SHT30;61807;48.384;-4.386;2022-07-18T13:35:52;37.49;24.81
73547;SHT30;61807;48.384;-4.386;2022-07-18T13:38:17;37.55;24.74
73547;SHT30;61807;48.384;-4.386;2022-07-18T13:40:43;37.55;24.94
73547;SHT30;61807;48.384;-4.386;2022-07-18T13:43:08;37.59;24.90
73547;SHT30;61807;48.384;-4.386;2022-07-18T13:45:34;37.62;25.66
73547;SHT30;61807;48.384;-4.386;2022-07-18T13:47:59;37.63;25.02
73547;SHT30;61807;48.384;-4.386;2022-07-18T13:50:24;37.67;24.96
73547;SHT30;61807;48.384;-4.386;2022-07-18T13:52:50;37.69;25.37
73547;SHT30;61807;48.384;-4.386;2022-07-18T13:55:15;37.73;25.54
73547;SHT30;61807;48.384;-4.386;2022-07-18T13:57:41;37.73;25.45
73547;SHT30;61807;48.384;-4.386;2022-07-18T14:00:08;37.72;25.38
73547;SHT30;61807;48.384;-4.386;2022-07-18T14:02:34;37.76;25.52
73547;SHT30;61807;48.384;-4.386;2022-07-18T14:04:59;37.77;24.84
73547;SHT30;61807;48.384;-4.386;2022-07-18T14:07:25;37.76;24.45
73547;SHT30;61807;48.384;-4.386;2022-07-18T14:09:50;37.78;24.20
73547;SHT30;61807;48.384;-4.386;2022-07-18T14:12:16;37.76;24.10
73547;SHT30;61807;48.384;-4.386;2022-07-18T14:14:41;37.78;23.59
73547;SHT30;61807;48.384;-4.386;2022-07-18T14:17:07;37.72;23.45
73547;SHT30;61807;48.384;-4.386;2022-07-18T14:19:32;37.72;23.22
73547;SHT30;61807;48.384;-4.386;2022-07-18T14:22:02;37.70;22.90
73547;SHT30;61807;48.384;-4.386;2022-07-18T14:24:27;37.65;23.14
73547;SHT30;61807;48.384;-4.386;2022-07-18T14:26:53;37.63;23.26
73547;SHT30;61807;48.384;-4.386;2022-07-18T14:29:18;37.62;23.26
73547;SHT30;61807;48.384;-4.386;2022-07-18T14:31:44;37.57;23.49
73547;SHT30;61807;48.384;-4.386;2022-07-18T14:34:09;37.59;23.10
73547;SHT30;61807;48.384;-4.386;2022-07-18T14:36:35;37.56;23.43
73547;SHT30;61807;48.384;-4.386;2022-07-18T14:39:00;37.55;23.47
73547;SHT30;61807;48.384;-4.386;2022-07-18T14:41:25;37.53;23.63
73547;SHT30;61807;48.384;-4.386;2022-07-18T14:43:51;37.55;23.99
73547;SHT30;61807;48.384;-4.386;2022-07-18T14:46:16;37.53;24.34
73547;SHT30;61807;48.384;-4.386;2022-07-18T14:48:42;37.53;24.55
73547;SHT30;61807;48.384;-4.386;2022-07-18T14:51:07;37.50;24.68
73547;SHT30;61807;48.384;-4.386;2022-07-18T14:53:33;37.53;24.88
73547;SHT30;61807;48.384;-4.386;2022-07-18T14:55:58;37.50;25.12
73547;SHT30;61807;48.384;-4.386;2022-07-18T14:58:24;37.49;25.10
73547;SHT30;61807;48.384;-4.386;2022-07-18T15:00:50;37.47;25.31
73547;SHT30;61807;48.384;-4.386;2022-07-18T15:03:15;37.49;25.66
73547;SHT30;61807;48.384;-4.386;2022-07-18T15:05:41;37.46;25.62
73547;SHT30;61807;48.384;-4.386;2022-07-18T15:08:07;37.42;25.43
73547;SHT30;61807;48.384;-4.386;2022-07-18T15:10:33;37.39;25.54
73547;SHT30;61807;48.384;-4.386;2022-07-18T15:12:58;37.39;25.53
73547;SHT30;61807;48.384;-4.386;2022-07-18T15:15:23;37.33;25.48
73547;SHT30;61807;48.384;-4.386;2022-07-18T15:17:50;37.26;25.05
73547;SHT30;61807;48.384;-4.386;2022-07-18T15:20:16;37.25;24.88
73547;SHT30;61807;48.384;-4.386;2022-07-18T15:22:43;37.18;24.73
73547;SHT30;61807;48.384;-4.386;2022-07-18T15:25:10;37.18;24.97
73547;SHT30;61807;48.384;-4.386;2022-07-18T15:27:35;37.12;24.60
73547;SHT30;61807;48.384;-4.386;2022-07-18T15:30:01;37.08;24.83
73547;SHT30;61807;48.384;-4.386;2022-07-18T15:32:26;37.07;25.04
73547;SHT30;61807;48.384;-4.386;2022-07-18T15:34:52;37.05;24.79
73547;SHT30;61807;48.384;-4.386;2022-07-18T15:37:17;36.96;25.23
73547;SHT30;61807;48.384;-4.386;2022-07-18T15:39:43;36.95;24.96
73547;SHT30;61807;48.384;-4.386;2022-07-18T15:42:08;36.92;25.09
73547;SHT30;61807;48.384;-4.386;2022-07-18T15:44:34;36.84;25.54
73547;SHT30;61807;48.384;-4.386;2022-07-18T15:47:04;36.82;25.39
73547;SHT30;61807;48.384;-4.386;2022-07-18T15:49:32;36.77;25.55
73547;SHT30;61807;48.384;-4.386;2022-07-18T15:51:57;36.74;25.60
73547;SHT30;61807;48.384;-4.386;2022-07-18T15:54:23;36.75;26.22
73547;SHT30;61807;48.384;-4.386;2022-07-18T15:56:48;36.71;26.16
73547;SHT30;61807;48.384;-4.386;2022-07-18T15:59:13;36.68;26.45
73547;SHT30;61807;48.384;-4.386;2022-07-18T16:01:39;36.66;26.69
73547;SHT30;61807;48.384;-4.386;2022-07-18T16:04:05;36.64;26.86
73547;SHT30;61807;48.384;-4.386;2022-07-18T16:06:30;36.60;26.73
73547;SHT30;61807;48.384;-4.386;2022-07-18T16:08:56;36.57;26.95